Airfield :
LOGIN :

Register | Disclaimer

   EN    FR    IT 

 










Legend :    VFR   Marginal VFR   IFR   Intensive IFR   Very Intensive IFR
Visi :
Ceiling :
>= 8 km
>= 3000ft
5 to 8 km
1000 to 3000 ft
1500m to 5 km
500 to 1000 ft
800 to 1500m
200 to 500 ft
< 800m
< 200 ft
Symbols :   Thunderstorms  Fog  Heavy snow  Heavy precipitations  Wind > 20 kt
SIGMETs :     Misc.  Thunderstorms  Icing  Turbulence  Mountain Waves  Volcanic Ashes






- Airport Elevation : 31 ft
- IATA code : INV


EGPE - Inverness

CURRENT METAR :
  • 290450Z AUTO 20009KT 9999 SCT042/// 07/05 Q0997

EXPIRED METARs :
  • 290420Z AUTO 20008KT 9999 BKN039/// 07/04 Q0997
  • 290350Z AUTO 20009KT 9999 BKN037/// 07/05 Q0996
  • 290320Z 21007KT 9999 FEW038 07/05 Q0996
  • 290250Z 21006KT 9999 FEW038 07/05 Q0996
  • 290220Z 22007KT 9999 FEW038 07/05 Q0995

TAF TAF EGPE
Valid from the 29 at 03:00 until the 29 at 12:00 UTC


290157Z 2903/2912 22010KT 9999 FEW030
BECMG 2908/2911 05004KT
ATIS : +44 1667 464 255



MET'MAP, your aeronautical weather chart ! - Copyright ORBIFLY December 2007 - Disclaimer

ORBIFLY MET'MAP TEAM :

Programming & Development : Alexandra Zaïnal
Concept & original design : Baudouin d'Aumeries
Assistance for programming : Marc-Olivier Méhu
Technical & hardware support : Manuel Goepfert

Contact : metmap@orbifly.com




SOURCES & CREDITS :

   NOAA